Terminal Aerodrome Forecast
Issued by NWS

Home | Current Version | Previous Version | Graphics & Text | Print | Product List | Glossary On
Versions: 1 2 3 4 5 6 7 8 9 10 11 12 13 14 15 16
000
FTUS42 KMHX 250535
TAFPGV
TAF
KPGV 250535Z 2506/2606 09011G18KT 5SM -SHRA SCT007 OVC015
      TEMPO 2507/2509 3SM -SHRA BKN007
     FM251200 19010KT P6SM VCSH BKN025
     FM251500 18008KT P6SM VCSH SCT025 BKN035
     FM252300 26005KT P6SM SCT025 BKN035
      AMD LTD TO CLD VIS AND WIND=

USA.gov is the U.S. government's official web portal to all federal, state and local government web resources and services.